createdAt,value
2022-09-03T00:00:42.410Z,50.37
2022-09-03T00:01:42.516Z,50.37
2022-09-03T00:02:33.477Z,50.37
2022-09-03T00:03:34.705Z,50.27
2022-09-03T00:04:40.836Z,50.47
2022-09-03T00:05:39.434Z,50.47
2022-09-03T00:06:32.111Z,50.67
2022-09-03T00:08:41.273Z,50.87
2022-09-03T00:09:34.584Z,50.87
2022-09-03T00:10:31.462Z,51.00
2022-09-03T00:11:31.272Z,51.00
2022-09-03T00:12:31.093Z,51.00
2022-09-03T00:13:35.168Z,50.80
2022-09-03T00:14:40.410Z,50.80
2022-09-03T00:15:31.917Z,51.00
2022-09-03T00:16:33.645Z,51.00
2022-09-03T00:17:31.767Z,50.90
2022-09-03T00:18:30.649Z,51.00
2022-09-03T00:19:33.539Z,51.10
2022-09-03T00:20:31.857Z,50.90
2022-09-03T00:21:38.883Z,50.90
2022-09-03T00:22:33.937Z,51.10
2022-09-03T00:23:33.360Z,51.00
2022-09-03T00:24:35.831Z,51.20
2022-09-03T00:25:32.020Z,51.20
2022-09-03T00:26:33.473Z,51.71
2022-09-03T00:27:33.044Z,51.50
2022-09-03T00:28:39.482Z,51.40
2022-09-03T00:29:37.739Z,51.40
2022-09-03T00:30:32.002Z,51.63
2022-09-03T00:31:31.899Z,51.63
2022-09-03T00:32:32.244Z,51.53
2022-09-03T00:33:30.841Z,51.63
2022-09-03T00:34:30.523Z,52.14
2022-09-03T00:35:34.465Z,51.93
2022-09-03T00:36:33.394Z,51.73
2022-09-03T00:37:38.251Z,51.63
2022-09-03T00:38:30.593Z,51.43
2022-09-03T00:39:34.439Z,51.53
2022-09-03T00:40:32.806Z,51.83
2022-09-03T00:41:30.475Z,51.73
2022-09-03T00:42:30.574Z,51.53
2022-09-03T00:43:31.741Z,51.73
2022-09-03T00:44:33.593Z,51.73
2022-09-03T00:45:34.099Z,51.63
2022-09-03T00:46:30.607Z,51.63
2022-09-03T00:47:38.518Z,51.63
2022-09-03T00:48:32.637Z,51.93
2022-09-03T00:49:31.379Z,52.03
2022-09-03T00:50:32.912Z,51.83
2022-09-03T00:51:34.276Z,51.73
2022-09-03T00:52:42.191Z,51.63
2022-09-03T00:53:34.130Z,51.63
2022-09-03T00:54:31.334Z,51.83
2022-09-03T00:55:31.452Z,51.83
2022-09-03T00:56:30.159Z,51.83
2022-09-03T00:57:30.359Z,51.83
2022-09-03T00:58:31.421Z,51.83
2022-09-03T00:59:35.062Z,51.93
2022-09-03T01:00:33.578Z,52.34
2022-09-03T01:01:32.758Z,52.26
2022-09-03T01:02:30.231Z,52.36
2022-09-03T01:03:30.191Z,52.76
2022-09-03T01:04:31.803Z,52.56
2022-09-03T01:05:32.843Z,52.46
2022-09-03T01:06:36.105Z,52.46
2022-09-03T01:07:39.260Z,52.56
2022-09-03T01:08:40.819Z,52.36
2022-09-03T01:09:31.079Z,52.36
2022-09-03T01:10:30.939Z,52.67
2022-09-03T01:11:33.032Z,52.56
2022-09-03T01:12:32.416Z,52.56
2022-09-03T01:13:31.982Z,52.67
2022-09-03T01:14:32.298Z,52.67
2022-09-03T01:15:33.695Z,52.76
2022-09-03T01:16:31.509Z,52.97
2022-09-03T01:17:32.175Z,52.87
2022-09-03T01:18:31.775Z,53.19
2022-09-03T01:19:32.173Z,53.40
2022-09-03T01:20:38.485Z,53.09
2022-09-03T01:21:30.807Z,53.19
2022-09-03T01:22:32.614Z,53.50
2022-09-03T01:23:32.066Z,53.09
2022-09-03T01:24:34.619Z,53.30
2022-09-03T01:25:31.854Z,53.50
2022-09-03T01:26:31.416Z,53.60
2022-09-03T01:27:34.236Z,53.50
2022-09-03T01:28:32.400Z,53.30
2022-09-03T01:29:31.209Z,53.40
2022-09-03T01:30:34.109Z,53.09
2022-09-03T01:31:30.800Z,53.50
2022-09-03T01:32:31.228Z,53.80
2022-09-03T01:33:37.487Z,53.70
2022-09-03T01:34:30.748Z,53.60
2022-09-03T01:35:29.719Z,53.70
2022-09-03T01:36:34.827Z,53.70
2022-09-03T01:37:30.171Z,53.90
2022-09-03T01:38:32.953Z,53.70
2022-09-03T01:39:31.180Z,53.83
2022-09-03T01:40:36.924Z,54.03
2022-09-03T01:41:35.413Z,53.93
2022-09-03T01:42:35.989Z,53.83
2022-09-03T01:43:30.696Z,53.83
2022-09-03T01:44:29.882Z,53.72
2022-09-03T01:45:36.486Z,53.72
2022-09-03T01:46:30.776Z,54.23
2022-09-03T01:47:32.856Z,54.13
2022-09-03T01:48:31.161Z,53.93
2022-09-03T01:49:30.295Z,53.93
2022-09-03T01:50:29.702Z,53.93
2022-09-03T01:51:35.122Z,53.93
2022-09-03T01:52:30.646Z,54.53
2022-09-03T01:53:50.632Z,54.56
2022-09-03T01:54:34.235Z,54.46
2022-09-03T01:55:29.425Z,54.46
2022-09-03T01:56:31.402Z,54.26
2022-09-03T01:57:35.544Z,54.16
2022-09-03T01:58:33.897Z,54.66
2022-09-03T01:59:31.998Z,54.56
2022-09-03T02:00:33.493Z,55.27
2022-09-03T02:01:36.326Z,55.17
2022-09-03T02:02:36.381Z,55.07
2022-09-03T02:03:30.341Z,54.86
2022-09-03T02:04:31.564Z,54.86
2022-09-03T02:05:29.424Z,54.76
2022-09-03T02:06:30.686Z,54.76
2022-09-03T02:07:30.940Z,54.76
2022-09-03T02:08:31.030Z,54.66
2022-09-03T02:09:33.012Z,54.46
2022-09-03T02:10:30.390Z,54.46
2022-09-03T02:11:29.430Z,54.56
2022-09-03T02:12:29.320Z,54.66
2022-09-03T02:13:29.207Z,54.66
2022-09-03T02:14:35.754Z,54.46
2022-09-03T02:15:30.720Z,54.56
2022-09-03T02:16:35.721Z,54.46
2022-09-03T02:17:29.321Z,54.86
2022-09-03T02:18:33.273Z,54.76
2022-09-03T02:19:32.673Z,55.07
2022-09-03T02:20:30.362Z,55.07
2022-09-03T02:21:29.115Z,55.10
2022-09-03T02:22:29.573Z,54.99
2022-09-03T02:23:57.256Z,55.19
2022-09-03T02:24:31.131Z,55.19
2022-09-03T02:25:33.162Z,55.19
2022-09-03T02:26:31.956Z,55.19
2022-09-03T02:27:33.498Z,55.19
2022-09-03T02:28:34.113Z,55.30
2022-09-03T02:29:29.992Z,55.40
2022-09-03T02:30:32.147Z,55.80
2022-09-03T02:31:37.824Z,55.70
2022-09-03T02:32:31.683Z,55.70
2022-09-03T02:33:30.142Z,55.70
2022-09-03T02:34:36.714Z,55.80
2022-09-03T02:35:35.226Z,55.50
2022-09-03T02:36:30.897Z,55.30
2022-09-03T02:37:31.218Z,55.60
2022-09-03T02:38:35.251Z,55.70
2022-09-03T02:39:30.272Z,55.80
2022-09-03T02:40:29.947Z,56.01
2022-09-03T02:41:31.651Z,55.83
2022-09-03T02:42:33.214Z,56.03
2022-09-03T02:43:29.386Z,56.03
2022-09-03T02:44:28.924Z,56.23
2022-09-03T02:45:33.881Z,56.13
2022-09-03T02:46:42.230Z,56.23
2022-09-03T02:47:29.760Z,56.03
2022-09-03T02:48:28.763Z,55.93
2022-09-03T02:49:29.298Z,55.83
2022-09-03T02:50:29.854Z,56.13
2022-09-03T02:51:28.712Z,55.83
2022-09-03T02:52:34.362Z,56.13
2022-09-03T02:53:28.848Z,55.83
2022-09-03T02:54:34.289Z,55.83
2022-09-03T02:55:32.409Z,56.03
2022-09-03T02:56:30.545Z,56.23
2022-09-03T02:57:28.579Z,55.93
2022-09-03T02:58:39.430Z,55.83
2022-09-03T02:59:31.848Z,55.73
2022-09-03T03:00:28.862Z,55.63
2022-09-03T03:01:37.022Z,55.80
2022-09-03T03:02:44.877Z,56.13
2022-09-03T03:03:41.159Z,56.34
2022-09-03T03:04:34.310Z,56.34
2022-09-03T03:05:29.582Z,56.13
2022-09-03T03:06:39.333Z,56.03
2022-09-03T03:07:29.442Z,56.34
2022-09-03T03:08:32.114Z,56.34
2022-09-03T03:09:38.558Z,56.13
2022-09-03T03:10:29.439Z,56.44
2022-09-03T03:11:28.979Z,56.44
2022-09-03T03:12:36.337Z,56.34
2022-09-03T03:13:30.029Z,56.34
2022-09-03T03:14:28.551Z,56.54
2022-09-03T03:15:32.767Z,56.44
2022-09-03T03:16:29.446Z,56.54
2022-09-03T03:17:28.734Z,56.64
2022-09-03T03:18:28.400Z,56.44
2022-09-03T03:19:28.659Z,56.44
2022-09-03T03:20:29.532Z,56.54
2022-09-03T03:21:31.229Z,56.84
2022-09-03T03:22:29.706Z,56.77
2022-09-03T03:23:28.757Z,57.07
2022-09-03T03:24:28.425Z,56.97
2022-09-03T03:25:32.497Z,56.77
2022-09-03T03:26:35.301Z,57.17
2022-09-03T03:27:31.672Z,56.97
2022-09-03T03:28:35.561Z,57.07
2022-09-03T03:29:29.262Z,57.28
2022-09-03T03:30:28.195Z,57.17
2022-09-03T03:31:28.560Z,57.37
2022-09-03T03:32:28.440Z,57.37
2022-09-03T03:33:28.245Z,57.48
2022-09-03T03:34:28.152Z,57.37
2022-09-03T03:35:34.206Z,57.60
2022-09-03T03:36:31.407Z,57.50
2022-09-03T03:37:28.061Z,57.91
2022-09-03T03:38:33.916Z,57.81
2022-09-03T03:39:54.087Z,57.50
2022-09-03T03:40:54.774Z,57.40
2022-09-03T03:41:29.240Z,57.28
2022-09-03T03:42:34.381Z,57.68
2022-09-03T03:43:28.027Z,57.37
2022-09-03T03:44:28.692Z,57.60
2022-09-03T03:45:28.067Z,57.60
2022-09-03T03:46:29.872Z,57.50
2022-09-03T03:47:34.559Z,57.60
2022-09-03T03:48:39.770Z,57.71
2022-09-03T03:49:28.969Z,57.91
2022-09-03T03:50:31.537Z,57.71
2022-09-03T03:51:30.857Z,58.31
2022-09-03T03:52:31.218Z,57.91
2022-09-03T03:53:34.228Z,58.01
2022-09-03T03:54:28.215Z,58.01
2022-09-03T03:55:28.194Z,58.11
2022-09-03T03:56:36.338Z,57.91
2022-09-03T03:57:28.925Z,57.81
2022-09-03T03:58:27.797Z,58.11
2022-09-03T03:59:28.016Z,58.11
2022-09-03T04:00:27.737Z,58.01
2022-09-03T04:01:29.341Z,58.31
2022-09-03T04:02:27.814Z,58.01
2022-09-03T04:03:27.753Z,57.91
2022-09-03T04:04:30.569Z,58.24
2022-09-03T04:05:33.792Z,58.14
2022-09-03T04:06:29.151Z,58.14
2022-09-03T04:07:29.122Z,57.91
2022-09-03T04:08:27.722Z,58.22
2022-09-03T04:09:33.402Z,58.01
2022-09-03T04:10:31.388Z,58.34
2022-09-03T04:11:27.723Z,58.14
2022-09-03T04:12:33.081Z,58.45
2022-09-03T04:13:27.753Z,58.24
2022-09-03T04:14:29.314Z,58.34
2022-09-03T04:15:39.226Z,58.45
2022-09-03T04:16:28.736Z,58.95
2022-09-03T04:17:29.362Z,58.54
2022-09-03T04:18:28.753Z,58.95
2022-09-03T04:19:31.964Z,58.75
2022-09-03T04:20:33.965Z,58.65
2022-09-03T04:21:29.944Z,58.54
2022-09-03T04:22:32.030Z,58.75
2022-09-03T04:23:32.154Z,58.54
2022-09-03T04:24:27.638Z,58.54
2022-09-03T04:25:28.913Z,58.65
2022-09-03T04:26:34.650Z,58.75
2022-09-03T04:27:29.883Z,58.85
2022-09-03T04:28:28.844Z,58.85
2022-09-03T04:29:27.635Z,58.75
2022-09-03T04:30:50.554Z,58.65
2022-09-03T04:31:28.435Z,58.95
2022-09-03T04:32:27.305Z,58.85
2022-09-03T04:33:27.459Z,58.95
2022-09-03T04:34:32.080Z,58.85
2022-09-03T04:35:30.602Z,59.16
2022-09-03T04:36:28.354Z,59.26
2022-09-03T04:37:28.410Z,59.46
2022-09-03T04:38:27.318Z,59.39
2022-09-03T04:39:30.342Z,59.08
2022-09-03T04:40:28.342Z,59.18
2022-09-03T04:41:39.738Z,59.18
2022-09-03T04:42:28.415Z,58.88
2022-09-03T04:43:27.423Z,59.39
2022-09-03T04:44:42.419Z,59.28
2022-09-03T04:45:53.484Z,59.36
2022-09-03T04:46:38.422Z,59.39
2022-09-03T04:47:31.919Z,59.39
2022-09-03T04:48:30.255Z,59.48
2022-09-03T04:49:27.095Z,59.39
2022-09-03T04:50:35.067Z,59.59
2022-09-03T04:51:29.913Z,59.59
2022-09-03T04:52:27.246Z,59.48
2022-09-03T04:53:27.287Z,59.39
2022-09-03T04:54:29.214Z,59.59
2022-09-03T04:55:27.887Z,59.69
2022-09-03T04:56:34.613Z,59.79
2022-09-03T04:57:30.533Z,59.69
2022-09-03T04:58:40.399Z,59.69
2022-09-03T04:59:27.934Z,59.79
2022-09-03T05:00:27.022Z,59.69
2022-09-03T05:01:27.185Z,59.69
2022-09-03T05:02:30.759Z,59.39
2022-09-03T05:03:37.558Z,59.79
2022-09-03T05:04:34.446Z,60.10
2022-09-03T05:05:31.994Z,59.69
2022-09-03T05:06:29.356Z,60.20
2022-09-03T05:07:26.996Z,59.99
2022-09-03T05:08:30.210Z,60.10
2022-09-03T05:09:26.982Z,60.30
2022-09-03T05:10:29.396Z,60.30
2022-09-03T05:11:28.093Z,59.99
2022-09-03T05:12:27.027Z,60.30
2022-09-03T05:13:26.946Z,60.30
2022-09-03T05:14:28.586Z,60.30
2022-09-03T05:15:41.219Z,60.60
2022-09-03T05:16:33.633Z,60.20
2022-09-03T05:17:37.695Z,60.20
2022-09-03T05:18:29.966Z,60.40
2022-09-03T05:19:32.728Z,60.60
2022-09-03T05:20:29.998Z,60.40
2022-09-03T05:21:32.411Z,60.71
2022-09-03T05:22:32.788Z,61.14
2022-09-03T05:23:46.002Z,60.94
2022-09-03T05:24:27.527Z,60.74
2022-09-03T05:25:31.850Z,60.63
2022-09-03T05:26:28.024Z,60.83
2022-09-03T05:27:27.014Z,60.53
2022-09-03T05:28:26.751Z,60.63
2022-09-03T05:29:31.880Z,60.30
2022-09-03T05:30:27.592Z,60.50
2022-09-03T05:31:32.948Z,60.91
2022-09-03T05:32:26.672Z,60.83
2022-09-03T05:33:29.864Z,60.83
2022-09-03T05:34:28.784Z,60.94
2022-09-03T05:35:30.163Z,60.94
2022-09-03T05:36:26.446Z,60.94
2022-09-03T05:37:26.424Z,60.94
2022-09-03T05:38:29.762Z,60.74
2022-09-03T05:39:27.487Z,60.74
2022-09-03T05:40:26.498Z,60.83
2022-09-03T05:41:26.503Z,60.63
2022-09-03T05:42:26.401Z,60.91
2022-09-03T05:43:26.333Z,61.01
2022-09-03T05:44:26.454Z,61.11
2022-09-03T05:45:26.525Z,61.14
2022-09-03T05:46:26.577Z,61.01
2022-09-03T05:47:26.870Z,60.71
2022-09-03T05:48:26.485Z,60.50
2022-09-03T05:49:26.236Z,60.71
2022-09-03T05:50:26.587Z,60.60
2022-09-03T05:51:26.407Z,60.60
2022-09-03T05:52:27.800Z,60.50
2022-09-03T05:53:27.597Z,60.91
2022-09-03T05:54:27.679Z,60.50
2022-09-03T05:55:30.121Z,60.81
2022-09-03T05:56:28.710Z,61.01
2022-09-03T05:57:34.658Z,60.81
2022-09-03T05:58:37.837Z,60.81
2022-09-03T05:59:27.529Z,60.81
2022-09-03T06:00:34.133Z,60.60
2022-09-03T06:01:31.003Z,60.60
2022-09-03T06:02:30.375Z,61.01
2022-09-03T06:03:29.699Z,60.68
2022-09-03T06:04:27.582Z,60.68
2022-09-03T06:05:28.926Z,60.47
2022-09-03T06:06:27.301Z,60.27
2022-09-03T06:07:27.142Z,60.58
2022-09-03T06:08:27.880Z,60.47
2022-09-03T06:09:27.017Z,60.78
2022-09-03T06:10:30.713Z,60.88
2022-09-03T06:11:27.452Z,60.78
2022-09-03T06:12:27.491Z,60.98
2022-09-03T06:13:30.626Z,60.68
2022-09-03T06:14:30.757Z,60.58
2022-09-03T06:15:26.046Z,60.47
2022-09-03T06:16:32.161Z,60.47
2022-09-03T06:17:26.854Z,60.37
2022-09-03T06:18:26.206Z,60.37
2022-09-03T06:19:26.184Z,60.35
2022-09-03T06:20:27.476Z,60.24
2022-09-03T06:21:35.647Z,60.14
2022-09-03T06:22:52.790Z,60.24
2022-09-03T06:23:27.294Z,60.35
2022-09-03T06:24:28.268Z,60.35
2022-09-03T06:25:26.858Z,60.35
2022-09-03T06:26:31.867Z,60.35
2022-09-03T06:27:26.737Z,60.24
2022-09-03T06:28:27.101Z,60.04
2022-09-03T06:29:29.039Z,60.14
2022-09-03T06:30:28.603Z,60.24
2022-09-03T06:31:30.066Z,60.24
2022-09-03T06:32:28.078Z,59.94
2022-09-03T06:33:37.195Z,59.81
2022-09-03T06:34:26.602Z,60.01
2022-09-03T06:35:27.102Z,59.91
2022-09-03T06:36:29.118Z,59.91
2022-09-03T06:37:34.551Z,59.91
2022-09-03T06:38:35.607Z,59.81
2022-09-03T06:39:28.166Z,59.91
2022-09-03T06:40:32.423Z,59.81
2022-09-03T06:41:41.300Z,59.61
2022-09-03T06:42:29.894Z,59.61
2022-09-03T06:43:29.455Z,59.99
2022-09-03T06:44:31.031Z,59.68
2022-09-03T06:45:34.388Z,59.48
2022-09-03T06:46:30.221Z,59.27
2022-09-03T06:47:32.204Z,59.17
2022-09-03T06:48:38.383Z,59.38
2022-09-03T06:49:33.000Z,59.38
2022-09-03T06:50:27.426Z,59.27
2022-09-03T06:51:33.249Z,58.87
2022-09-03T06:52:28.393Z,59.27
2022-09-03T06:53:32.103Z,59.05
2022-09-03T06:54:57.088Z,58.74
2022-09-03T06:55:29.717Z,58.94
2022-09-03T06:56:38.869Z,59.05
2022-09-03T06:57:29.305Z,59.05
2022-09-03T06:58:28.455Z,58.64
2022-09-03T06:59:35.519Z,58.61
2022-09-03T07:00:30.814Z,58.71
2022-09-03T07:01:59.357Z,58.61
2022-09-03T07:02:29.007Z,58.61
2022-09-03T07:03:25.437Z,58.31
2022-09-03T07:04:29.157Z,58.61
2022-09-03T07:05:27.711Z,58.51
2022-09-03T07:06:26.280Z,58.38
2022-09-03T07:07:41.574Z,58.18
2022-09-03T07:08:26.050Z,58.28
2022-09-03T07:09:25.377Z,57.98
2022-09-03T07:10:31.153Z,57.95
2022-09-03T07:11:26.526Z,57.85
2022-09-03T07:12:34.087Z,57.54
2022-09-03T07:13:26.964Z,57.44
2022-09-03T07:14:29.550Z,57.34
2022-09-03T07:15:36.639Z,57.34
2022-09-03T07:16:32.446Z,57.44
2022-09-03T07:17:33.701Z,57.24
2022-09-03T07:18:28.839Z,57.24
2022-09-03T07:19:36.742Z,57.42
2022-09-03T07:20:52.192Z,57.11
2022-09-03T07:21:29.178Z,57.21
2022-09-03T07:22:31.289Z,56.91
2022-09-03T07:23:25.221Z,56.71
2022-09-03T07:24:29.124Z,56.81
2022-09-03T07:25:28.567Z,57.01
2022-09-03T07:26:29.852Z,56.81
2022-09-03T07:27:25.801Z,56.71
2022-09-03T07:28:37.136Z,56.61
2022-09-03T07:29:29.584Z,56.68
2022-09-03T07:30:30.902Z,56.58
2022-09-03T07:31:27.165Z,56.48
2022-09-03T07:32:29.838Z,56.48
2022-09-03T07:33:33.540Z,56.27
2022-09-03T07:34:37.576Z,56.27
2022-09-03T07:35:27.089Z,56.38
2022-09-03T07:36:35.251Z,56.56
2022-09-03T07:37:30.019Z,56.05
2022-09-03T07:38:33.373Z,55.94
2022-09-03T07:39:38.481Z,55.94
2022-09-03T07:40:58.165Z,56.05
2022-09-03T07:41:29.021Z,55.85
2022-09-03T07:42:27.049Z,55.82
2022-09-03T07:43:28.334Z,55.52
2022-09-03T07:44:31.065Z,55.52
2022-09-03T07:45:29.183Z,55.32
2022-09-03T07:46:24.931Z,55.41
2022-09-03T07:47:33.959Z,55.39
2022-09-03T07:48:26.749Z,54.99
2022-09-03T07:49:26.173Z,55.09
2022-09-03T07:50:30.501Z,55.09
2022-09-03T07:51:27.429Z,54.79
2022-09-03T07:52:29.544Z,54.89
2022-09-03T07:53:25.930Z,54.58
2022-09-03T07:54:28.881Z,54.68
2022-09-03T07:55:25.410Z,54.89
2022-09-03T07:56:26.558Z,54.79
2022-09-03T07:57:24.559Z,54.58
2022-09-03T07:58:26.111Z,54.25
2022-09-03T07:59:27.192Z,54.36
2022-09-03T08:00:29.251Z,54.25
2022-09-03T08:01:26.661Z,54.46
2022-09-03T08:02:56.180Z,54.46
2022-09-03T08:03:49.108Z,54.46
2022-09-03T08:04:26.418Z,54.23
2022-09-03T08:05:33.011Z,54.33
2022-09-03T08:06:32.812Z,54.03
2022-09-03T08:07:26.517Z,53.83
2022-09-03T08:08:31.275Z,53.50
2022-09-03T08:09:27.399Z,53.50
2022-09-03T08:10:29.353Z,53.20
2022-09-03T08:11:30.052Z,53.30
2022-09-03T08:12:29.029Z,53.20
2022-09-03T08:13:28.126Z,53.20
2022-09-03T08:14:33.867Z,53.09
2022-09-03T08:15:33.494Z,53.20
2022-09-03T08:16:36.124Z,53.00
2022-09-03T08:17:34.677Z,53.07
2022-09-03T08:18:40.798Z,53.17
2022-09-03T08:19:31.158Z,53.17
2022-09-03T08:20:26.456Z,53.47
2022-09-03T08:21:25.439Z,52.97
2022-09-03T08:22:24.370Z,52.97
2022-09-03T08:23:31.133Z,52.44
2022-09-03T08:24:25.229Z,52.14
2022-09-03T08:25:24.417Z,52.14
2022-09-03T08:26:24.722Z,52.01
2022-09-03T08:27:31.589Z,52.01
2022-09-03T08:28:25.534Z,51.71
2022-09-03T08:29:25.922Z,51.59
2022-09-03T08:30:27.409Z,51.06
2022-09-03T08:31:36.874Z,50.86
2022-09-03T08:32:28.629Z,50.53
2022-09-03T08:33:27.805Z,50.11
2022-09-03T08:34:25.092Z,49.91
2022-09-03T08:35:29.834Z,49.71
2022-09-03T08:36:24.036Z,49.60
2022-09-03T08:37:25.084Z,49.83
2022-09-03T08:38:24.442Z,49.93
2022-09-03T08:39:27.628Z,49.83
2022-09-03T08:40:24.414Z,49.93
2022-09-03T08:41:28.803Z,50.03
2022-09-03T08:42:26.274Z,50.23
2022-09-03T08:43:26.144Z,50.23
2022-09-03T08:44:24.156Z,50.53
2022-09-03T08:45:24.301Z,50.23
2022-09-03T08:46:30.712Z,50.21
2022-09-03T08:47:24.903Z,50.31
2022-09-03T08:48:25.991Z,50.11
2022-09-03T08:49:27.115Z,50.01
2022-09-03T08:50:27.345Z,49.78
2022-09-03T08:51:26.913Z,49.38
2022-09-03T08:52:31.508Z,48.75
2022-09-03T08:53:24.396Z,48.53
2022-09-03T08:54:24.620Z,48.53
2022-09-03T08:55:24.023Z,48.83
2022-09-03T08:57:55.725Z,48.01
2022-09-03T08:58:55.986Z,47.81
2022-09-03T08:59:56.467Z,47.38
2022-09-03T09:00:58.159Z,46.98
2022-09-03T09:02:03.658Z,47.28
2022-09-03T09:02:59.873Z,47.28
2022-09-03T09:03:56.359Z,47.69
2022-09-03T09:04:59.344Z,47.69
2022-09-03T09:05:55.752Z,47.49
2022-09-03T09:06:55.471Z,47.38
2022-09-03T09:08:01.290Z,46.88
2022-09-03T09:09:09.806Z,47.08
2022-09-03T09:09:59.381Z,47.08
2022-09-03T09:10:55.573Z,47.19
2022-09-03T09:12:00.215Z,47.19
2022-09-03T09:13:03.716Z,47.38
2022-09-03T09:13:58.937Z,47.16
2022-09-03T09:14:55.984Z,47.14
2022-09-03T09:16:01.635Z,46.51
2022-09-03T09:17:03.215Z,45.81
2022-09-03T09:17:54.991Z,45.81
2022-09-03T09:18:55.342Z,45.92
2022-09-03T09:20:06.581Z,46.31
2022-09-03T09:20:57.427Z,46.14
2022-09-03T09:22:03.845Z,46.31
2022-09-03T09:22:56.006Z,46.24
2022-09-03T09:24:14.223Z,46.64
2022-09-03T09:25:03.014Z,46.64
2022-09-03T09:26:06.073Z,46.24
2022-09-03T09:27:15.409Z,46.12
2022-09-03T09:29:09.493Z,46.22
2022-09-03T09:30:18.330Z,46.12
2022-09-03T09:31:15.485Z,46.42
2022-09-03T09:33:45.149Z,46.51
2022-09-03T09:34:51.409Z,45.72
2022-09-03T09:35:48.197Z,45.81
2022-09-03T09:36:45.760Z,45.59
2022-09-03T09:37:48.446Z,45.20
2022-09-03T09:38:50.936Z,44.89
2022-09-03T09:39:58.462Z,44.89
2022-09-03T09:40:44.884Z,44.89
2022-09-03T09:41:54.627Z,45.00
2022-09-03T09:42:47.720Z,44.89
2022-09-03T09:43:50.387Z,44.59
2022-09-03T09:44:44.812Z,45.00
2022-09-03T09:45:43.635Z,45.29
2022-09-03T09:46:52.678Z,45.09
2022-09-03T09:48:02.846Z,45.00
2022-09-03T09:48:42.233Z,44.79
2022-09-03T09:49:42.551Z,44.97
2022-09-03T09:50:41.929Z,44.78
2022-09-03T09:51:44.451Z,44.87
2022-09-03T09:52:46.396Z,44.67
2022-09-03T09:53:44.477Z,44.57
2022-09-03T09:54:46.352Z,44.57
2022-09-03T09:55:41.882Z,44.78
2022-09-03T09:56:40.698Z,44.87
2022-09-03T09:57:41.540Z,44.67
2022-09-03T09:58:40.733Z,44.97
2022-09-03T09:59:40.594Z,44.97
2022-09-03T10:00:40.649Z,44.78
2022-09-03T10:01:50.822Z,44.97
2022-09-03T10:02:41.630Z,45.17
2022-09-03T10:03:41.594Z,44.95
2022-09-03T10:04:44.618Z,44.85
2022-09-03T10:05:45.070Z,44.45
2022-09-03T10:06:48.796Z,43.95
2022-09-03T10:07:43.796Z,44.25
2022-09-03T10:08:42.844Z,44.05
2022-09-03T10:09:42.085Z,44.15
2022-09-03T10:11:05.835Z,43.75
2022-09-03T10:11:41.325Z,43.75
2022-09-03T10:12:40.597Z,43.65
2022-09-03T10:13:47.348Z,43.33
2022-09-03T10:14:47.841Z,43.63
2022-09-03T10:15:54.657Z,43.63
2022-09-03T10:16:44.587Z,43.33
2022-09-03T10:17:46.249Z,43.63
2022-09-03T10:18:48.189Z,43.73
2022-09-03T10:19:43.333Z,43.83
2022-09-03T10:20:46.214Z,43.63
2022-09-03T10:21:40.292Z,43.51
2022-09-03T10:22:57.107Z,42.81
2022-09-03T10:23:43.619Z,42.81
2022-09-03T10:24:44.834Z,42.81
2022-09-03T10:25:43.813Z,43.21
2022-09-03T10:26:40.456Z,42.71
2022-09-03T10:27:41.124Z,42.91
2022-09-03T10:28:47.204Z,42.71
2022-09-03T10:29:50.664Z,42.51
2022-09-03T10:30:53.349Z,42.61
2022-09-03T10:31:43.407Z,42.91
2022-09-03T10:32:41.912Z,43.01
2022-09-03T10:33:51.357Z,42.79
2022-09-03T10:34:44.823Z,42.69
2022-09-03T10:35:45.029Z,42.69
2022-09-03T10:36:45.794Z,42.79
2022-09-03T10:37:41.146Z,42.59
2022-09-03T10:38:40.023Z,42.59
2022-09-03T10:39:43.567Z,42.29
2022-09-03T10:40:43.561Z,42.10
2022-09-03T10:41:46.700Z,42.59
2022-09-03T10:42:43.484Z,42.59
2022-09-03T10:43:42.588Z,42.69
2022-09-03T10:44:45.391Z,42.59
2022-09-03T10:45:45.655Z,42.69
2022-09-03T10:46:41.137Z,42.49
2022-09-03T10:47:42.760Z,42.77
2022-09-03T10:48:45.459Z,42.47
2022-09-03T10:49:41.405Z,42.37
2022-09-03T10:50:42.172Z,42.67
2022-09-03T10:51:49.382Z,42.37
2022-09-03T10:52:40.317Z,42.57
2022-09-03T10:53:39.863Z,42.47
2022-09-03T10:54:40.391Z,42.27
2022-09-03T10:55:43.971Z,42.18
2022-09-03T10:56:43.012Z,42.18
2022-09-03T10:57:44.144Z,41.88
2022-09-03T10:58:40.274Z,42.27
2022-09-03T10:59:40.880Z,42.07
2022-09-03T11:00:46.645Z,42.37
2022-09-03T11:01:43.730Z,42.47
2022-09-03T11:02:44.492Z,42.77
2022-09-03T11:03:48.535Z,42.45
2022-09-03T11:04:44.356Z,42.25
2022-09-03T11:05:49.673Z,41.96
2022-09-03T11:06:41.260Z,41.75
2022-09-03T11:07:43.797Z,42.05
2022-09-03T11:08:39.902Z,41.96
2022-09-03T11:09:41.965Z,41.85
2022-09-03T11:10:44.733Z,42.05
2022-09-03T11:11:47.572Z,41.85
2022-09-03T11:12:42.256Z,41.75
2022-09-03T11:13:39.582Z,41.75
2022-09-03T11:14:44.341Z,41.85
2022-09-03T11:15:41.030Z,41.46
2022-09-03T11:16:41.074Z,41.75
2022-09-03T11:17:41.757Z,41.66
2022-09-03T11:18:51.467Z,41.66
2022-09-03T11:19:44.046Z,41.46
2022-09-03T11:20:46.791Z,41.36
2022-09-03T11:21:40.592Z,41.75
2022-09-03T11:22:47.835Z,41.85
2022-09-03T11:23:43.252Z,41.75
2022-09-03T11:24:43.827Z,41.85
2022-09-03T11:25:39.720Z,42.25
2022-09-03T11:28:11.265Z,41.85
2022-09-03T11:29:10.390Z,42.25
2022-09-03T11:30:13.226Z,41.96
2022-09-03T11:31:17.781Z,41.66
2022-09-03T11:32:21.838Z,41.85
2022-09-03T11:33:11.334Z,41.96
2022-09-03T11:34:10.236Z,41.85
2022-09-03T11:35:18.156Z,42.45
2022-09-03T11:36:19.181Z,41.44
2022-09-03T11:37:13.989Z,41.14
2022-09-03T11:41:00.172Z,41.75
2022-09-03T11:42:22.830Z,41.96
2022-09-03T11:43:01.028Z,41.96
2022-09-03T11:44:04.476Z,41.55
2022-09-03T11:44:57.595Z,41.96
2022-09-03T11:45:57.917Z,41.85
2022-09-03T11:47:03.956Z,42.35
2022-09-03T11:47:59.438Z,42.05
2022-09-03T11:48:59.266Z,42.45
2022-09-03T11:49:57.351Z,42.35
2022-09-03T11:50:56.620Z,42.15
2022-09-03T11:52:00.874Z,42.25
2022-09-03T11:52:55.826Z,42.25
2022-09-03T11:54:00.856Z,42.13
2022-09-03T11:54:59.376Z,42.13
2022-09-03T11:55:58.507Z,42.03
2022-09-03T11:57:02.976Z,42.01
2022-09-03T11:57:58.231Z,41.82
2022-09-03T11:59:05.300Z,41.82
2022-09-03T11:59:56.651Z,41.79
2022-09-03T12:00:58.407Z,41.39
2022-09-03T12:01:56.892Z,41.79
2022-09-03T12:02:59.159Z,41.50
2022-09-03T12:03:55.582Z,41.38
2022-09-03T12:05:16.783Z,41.28
2022-09-03T12:05:59.717Z,41.17
2022-09-03T12:06:58.750Z,40.48
2022-09-03T12:07:57.758Z,40.68
2022-09-03T12:08:56.424Z,40.88
2022-09-03T12:09:56.867Z,40.66
2022-09-03T12:10:57.089Z,40.96
2022-09-03T12:12:00.809Z,40.76
2022-09-03T12:12:55.601Z,40.96
2022-09-03T12:13:56.492Z,40.86
2022-09-03T12:14:57.520Z,40.76
2022-09-03T12:16:01.777Z,40.96
2022-09-03T12:17:09.070Z,40.96
2022-09-03T12:17:56.370Z,40.24
2022-09-03T12:19:04.715Z,40.05
2022-09-03T12:20:02.675Z,39.95
2022-09-03T12:20:57.926Z,40.05
2022-09-03T12:22:29.444Z,40.44
2022-09-03T12:22:55.266Z,39.84
2022-09-03T12:24:04.964Z,40.05
2022-09-03T12:25:12.012Z,39.92
2022-09-03T12:26:00.739Z,39.63
2022-09-03T12:27:04.823Z,39.83
2022-09-03T12:27:57.574Z,40.14
2022-09-03T12:28:58.858Z,40.64
2022-09-03T12:29:57.418Z,40.46
2022-09-03T12:31:02.072Z,40.26
2022-09-03T12:31:57.272Z,40.36
2022-09-03T12:34:19.379Z,40.68
2022-09-03T12:36:18.329Z,40.98
2022-09-03T12:38:04.575Z,41.28
2022-09-03T12:38:18.808Z,41.08
2022-09-03T12:40:04.694Z,41.17
2022-09-03T12:40:19.406Z,40.66
2022-09-03T12:41:23.501Z,40.58
2022-09-03T12:42:25.005Z,40.78
2022-09-03T12:43:49.759Z,41.17
2022-09-03T12:44:27.960Z,41.28
2022-09-03T12:45:17.233Z,41.38
2022-09-03T12:46:24.702Z,41.38
2022-09-03T12:47:36.987Z,41.17
2022-09-03T12:48:28.470Z,41.17
2022-09-03T12:49:31.212Z,41.17
2022-09-03T12:50:21.422Z,41.38
2022-09-03T12:52:27.155Z,41.08
2022-09-03T12:53:21.297Z,41.38
2022-09-03T12:54:18.665Z,41.28
2022-09-03T12:55:27.331Z,41.08
2022-09-03T12:56:26.924Z,40.96
2022-09-03T12:57:30.272Z,41.25
2022-09-03T12:58:22.036Z,41.06
2022-09-03T12:59:20.013Z,40.76
2022-09-03T13:00:27.059Z,40.76
2022-09-03T13:01:17.488Z,40.34
2022-09-03T13:02:19.131Z,40.46
2022-09-03T13:03:20.354Z,40.94
2022-09-03T13:04:23.009Z,40.14
2022-09-03T13:05:17.943Z,40.84